Date,TemperatureHighF,TemperatureAvgF,TemperatureLowF,DewpointHighF,DewpointAvgF,DewpointLowF,HumidityHigh,HumidityAvg,HumidityLow,PressureMaxIn,PressureMinIn,WindSpeedMaxMPH,WindSpeedAvgMPH,GustSpeedMaxMPH,PrecipitationSumIn
2013-1-1,57.6,44.1,35.2,29.7,18.3,10.0,49,36,28,30.06,29.96,17,5,17,0.00
2013-1-2,61.9,45.6,34.3,31.6,18.3,10.2,40,33,26,30.02,29.91,15,6,15,0.00
2013-1-3,61.5,44.0,32.0,29.8,17.4,5.2,44,34,24,30.05,29.95,15,5,15,0.00
2013-1-4,65.3,46.5,35.8,34.7,22.2,12.0,54,39,22,30.06,29.98,13,5,13,0.00
2013-1-5,56.3,47.5,38.8,35.8,27.5,16.7,67,49,23,30.09,25.01,21,4,21,0.22
2013-1-6,52.0,46.5,41.5,33.4,25.7,18.5,60,45,30,30.01,29.87,15,4,15,0.40
2013-1-7,58.1,46.3,36.9,26.2,22.0,15.6,55,39,24,30.07,29.96,14,3,14,0.00
2013-1-8,65.8,50.7,39.0,29.8,21.9,15.1,58,34,16,30.03,29.92,11,3,11,0.00
2013-1-9,53.1,47.7,40.5,33.8,25.5,14.9,60,43,28,29.94,29.84,26,7,26,0.01
2013-1-10,50.9,45.5,38.7,20.8,15.0,10.0,44,29,24,30.02,29.88,28,9,28,0.07
2013-1-11,52.2,45.2,37.8,18.0,13.7,9.5,34,28,24,30.08,29.95,20,5,20,0.00
2013-1-12,54.7,42.9,34.3,20.7,13.2,2.8,44,30,23,30.06,29.94,13,3,13,0.00
2013-1-13,51.6,39.1,28.0,15.1,8.3,2.8,42,28,21,30.06,29.96,11,3,11,0.00
2013-1-14,52.9,39.6,26.1,15.1,4.8,-6.9,28,23,20,30.22,30.02,12,4,12,0.00
2013-1-15,58.3,40.4,27.7,23.5,6.2,-5.1,30,24,20,30.28,30.19,12,4,12,0.00
2013-1-16,61.9,41.4,30.6,26.4,10.6,0.9,34,28,19,30.22,30.04,15,4,15,0.00
2013-1-17,71.6,50.4,36.3,41.4,20.1,3.7,37,30,18,30.04,29.91,15,6,15,0.00
2013-1-18,73.2,50.3,33.6,42.4,21.5,4.1,39,32,21,30.01,29.92,10,3,10,0.00
2013-1-19,73.0,51.1,36.7,43.7,23.7,3.4,43,34,23,30.01,29.94,15,5,15,0.00
2013-1-20,74.5,51.2,35.6,47.1,25.3,5.7,43,36,28,30.01,29.89,17,6,17,0.00
2013-1-21,74.7,52.6,36.7,46.6,26.9,8.2,42,37,29,29.96,29.85,14,5,14,0.00
2013-1-22,68.2,51.7,35.4,41.4,26.5,8.6,42,37,30,29.90,29.81,13,4,13,0.00
2013-1-23,61.3,53.0,47.3,32.9,27.6,21.9,49,37,33,29.89,29.77,15,3,15,0.02
2013-1-24,57.2,52.6,48.6,39.4,34.5,27.1,65,51,34,29.99,29.84,8,2,8,0.08
2013-1-25,70.2,56.8,50.0,49.8,36.0,28.0,75,48,24,30.00,29.85,16,4,16,0.00
2013-1-26,56.1,52.2,46.9,40.6,28.2,17.8,62,41,27,29.92,29.82,25,9,25,0.00
2013-1-27,55.4,49.4,45.7,20.1,16.3,11.3,31,27,22,29.99,29.90,19,8,19,0.00
2013-1-28,55.0,48.0,39.9,21.4,16.2,11.5,35,28,22,30.11,29.97,21,6,21,0.00
2013-1-29,54.0,47.6,42.1,28.8,21.3,15.1,49,36,22,30.17,30.07,14,4,14,0.00
2013-1-30,65.5,49.4,37.4,27.7,19.8,11.1,55,32,21,30.16,30.06,13,4,13,0.00
2013-1-31,69.8,49.7,35.8,30.0,21.0,10.6,58,34,22,30.09,29.98,15,4,15,0.00
2013-2-1,72.7,49.3,38.8,30.0,23.5,12.7,56,38,19,30.05,29.92,17,6,17,0.00
2013-2-2,54.1,48.7,44.8,43.3,33.3,24.4,74,57,32,30.10,30.03,11,3,11,0.00
2013-2-3,57.9,48.9,42.6,36.0,28.7,19.8,60,47,27,30.07,29.96,15,3,15,0.01
2013-2-4,62.4,45.4,34.0,41.7,29.2,20.8,77,55,22,30.00,29.88,15,6,15,0.01
2013-2-5,53.8,48.9,45.9,33.6,28.0,19.6,59,45,26,29.97,29.88,14,3,14,0.00
2013-2-6,59.4,47.7,38.1,30.2,23.2,15.6,56,40,22,30.02,29.95,17,4,17,0.01
2013-2-7,56.7,47.9,40.3,23.5,17.7,10.0,47,31,21,30.00,29.84,17,5,17,0.04
2013-2-8,52.0,45.5,41.4,29.7,20.3,13.3,60,38,23,29.84,29.76,19,5,19,0.11
2013-2-9,55.8,44.9,33.8,24.3,17.8,11.5,56,35,20,29.93,29.81,16,4,16,0.00
2013-2-10,57.2,43.9,30.7,23.4,16.0,7.3,50,33,21,29.93,29.84,13,4,13,0.00
2013-2-11,62.6,45.9,31.6,23.0,16.7,9.0,58,33,21,30.06,29.87,13,5,13,0.00
2013-2-12,58.6,46.0,34.9,27.7,17.3,3.2,53,32,22,30.17,30.06,15,4,15,0.00
2013-2-13,60.8,46.0,35.8,37.6,26.9,18.0,75,50,23,30.15,30.03,16,5,16,0.01
2013-2-14,70.9,50.8,36.1,39.6,25.7,16.2,79,43,15,30.04,29.94,14,5,14,0.00
2013-2-15,79.7,57.9,41.9,30.0,19.3,11.8,36,23,13,30.05,29.98,15,5,15,0.00
2013-2-16,76.3,54.6,43.7,37.6,20.5,9.3,64,29,13,30.03,29.87,16,6,16,0.00
2013-2-17,54.0,49.2,44.8,38.8,26.1,17.6,67,42,24,29.89,29.80,60,9,60,0.00
2013-2-18,56.5,48.3,45.5,33.4,22.2,14.0,57,37,27,30.02,29.81,15,6,15,0.00
2013-2-19,52.9,45.3,39.4,27.0,16.4,8.2,47,32,22,29.81,29.59,30,6,30,0.26
2013-2-20,54.0,45.6,36.0,18.5,14.9,6.3,42,29,22,29.89,29.64,27,7,27,0.00
2013-2-21,55.4,47.8,39.2,22.8,17.3,12.0,45,30,21,29.99,29.87,19,5,19,0.00
2013-2-22,63.0,47.5,33.8,28.4,17.5,9.5,46,31,19,30.08,29.98,15,6,15,0.00
2013-2-23,55.6,49.6,44.6,34.3,20.3,12.0,58,33,22,30.07,29.95,25,9,25,0.04
2013-2-24,65.3,49.5,39.4,21.0,14.3,6.6,41,25,16,30.08,29.97,16,5,16,0.00
2013-2-25,59.4,47.0,34.2,32.0,19.9,7.2,57,36,20,30.09,29.99,19,6,19,0.00
2013-2-26,68.0,50.2,37.0,32.4,21.4,9.3,65,36,18,30.03,29.93,17,5,17,0.01
2013-2-27,65.7,48.5,33.6,25.7,13.6,0.9,43,25,18,30.19,30.01,17,5,23,0.00
2013-2-28,67.5,51.2,41.5,37.9,27.1,16.9,66,42,19,31.06,30.18,75,5,75,0.00
2013-3-1,76.6,55.3,41.4,52.0,38.6,32.5,76,55,41,30.24,30.03,14,4,14,0.00
2013-3-2,66.6,53.4,47.7,42.3,36.2,29.3,68,53,41,30.04,29.91,18,5,18,0.00
2013-3-3,57.6,51.4,48.7,41.7,36.7,32.4,69,57,47,29.95,29.90,17,7,17,0.00
2013-3-4,57.4,49.4,43.3,37.4,32.3,27.1,54,52,46,29.98,29.89,17,4,17,0.00
2013-3-5,59.2,51.2,45.0,36.9,31.7,26.8,55,47,42,29.92,29.75,15,5,15,0.01
2013-3-6,55.6,50.4,43.9,32.5,29.0,24.3,46,43,41,29.92,29.75,15,6,15,0.19
2013-3-7,60.1,48.1,40.1,36.9,29.7,23.7,67,50,38,29.83,29.67,15,3,15,0.14
2013-3-8,53.4,48.7,43.5,36.1,31.2,28.2,67,52,42,29.94,29.64,29,10,29,0.18
2013-3-9,58.1,51.3,45.0,32.0,28.7,23.9,49,42,36,30.13,29.93,19,8,19,0.00
2013-3-10,60.6,48.1,39.4,37.0,29.8,26.6,72,50,35,30.16,30.07,18,5,18,0.00
2013-3-11,66.9,48.7,36.0,41.7,32.9,27.3,77,56,39,30.08,29.93,18,5,19,0.01
2013-3-12,64.0,50.3,44.2,44.4,37.3,32.2,78,62,41,29.97,29.89,17,6,17,0.00
2013-3-13,78.3,53.4,43.2,48.4,38.7,30.7,83,61,34,29.96,29.89,23,6,23,0.00
2013-3-14,61.0,51.5,43.3,48.2,37.1,31.1,81,60,42,29.99,29.90,19,6,19,0.00
2013-3-15,66.6,53.6,45.5,41.7,35.0,28.9,70,50,38,29.95,29.86,21,7,21,0.00
2013-3-16,68.2,52.5,48.2,41.7,36.0,30.0,72,55,37,29.94,29.86,25,9,25,0.00
2013-3-17,63.0,51.4,45.0,37.2,31.1,27.9,62,46,38,29.96,29.88,21,8,21,0.00
2013-3-18,57.2,50.1,42.8,43.0,32.3,27.5,73,51,40,29.96,29.86,23,6,24,0.00
2013-3-19,70.9,52.4,42.6,40.3,30.1,25.0,52,43,33,30.00,29.87,21,6,75,0.04
2013-3-20,62.1,55.3,50.2,41.7,33.8,29.7,65,45,34,29.96,29.88,15,5,15,0.01
2013-3-21,59.9,52.2,46.9,39.2,29.6,25.2,62,42,34,29.95,29.84,22,8,22,0.01
2013-3-22,65.8,51.1,41.5,37.0,27.9,22.1,57,41,32,29.91,29.83,21,6,21,0.00
2013-3-23,68.7,51.5,40.5,40.6,27.2,20.8,49,39,33,29.94,29.87,18,6,18,0.00
2013-3-24,61.0,49.7,39.7,33.8,28.6,22.6,58,45,33,29.91,29.81,20,7,20,0.00
2013-3-25,59.0,49.3,45.0,37.6,31.0,25.3,67,51,36,29.85,29.80,21,7,21,0.00
2013-3-26,62.1,51.1,42.4,31.8,27.0,23.5,49,39,31,29.84,29.77,21,6,21,0.00
2013-3-27,65.7,54.2,44.4,38.3,29.5,22.8,59,39,31,29.86,29.78,21,6,21,0.00
2013-3-28,64.9,56.0,49.5,41.4,35.8,30.4,62,48,32,29.92,29.83,18,5,18,0.00
2013-3-29,69.4,53.0,45.3,46.8,36.6,29.5,79,56,32,29.91,29.87,21,6,21,0.00
2013-3-30,65.3,55.0,50.2,44.6,39.2,34.5,74,56,40,29.92,29.81,19,4,19,0.08
2013-3-31,71.8,58.3,48.0,45.3,39.5,32.4,75,51,35,29.90,29.80,21,6,21,0.09
2013-4-1,62.1,55.7,49.6,44.2,37.4,30.4,65,51,42,29.99,29.88,19,5,19,0.09
2013-4-2,64.9,51.9,46.2,42.6,35.9,31.3,71,55,37,30.01,29.92,20,7,20,0.00
2013-4-3,73.2,52.8,48.2,48.0,38.8,30.6,83,61,33,29.96,29.85,25,6,25,0.00
2013-4-4,64.6,55.2,50.0,42.8,37.9,34.0,68,53,36,29.96,29.86,23,6,23,0.06
2013-4-5,63.5,56.8,52.0,44.1,36.3,31.3,67,47,35,30.03,29.95,20,6,20,0.01
2013-4-6,65.5,56.1,50.2,37.4,34.2,31.1,58,44,32,30.03,29.97,19,7,19,0.01
2013-4-7,61.5,55.1,48.7,34.7,31.7,28.0,52,41,33,30.01,29.76,24,8,24,0.01
2013-4-8,59.4,52.6,48.7,39.9,19.8,14.9,62,28,21,29.84,29.70,37,17,37,0.01
2013-4-9,63.1,55.2,46.8,30.2,21.2,13.5,50,28,18,29.90,29.82,23,9,23,0.01
2013-4-10,77.4,58.4,46.2,42.1,24.6,9.5,52,27,20,29.98,29.88,21,8,21,0.00
2013-4-11,61.7,52.4,48.4,35.2,24.6,15.6,54,36,20,29.93,29.71,23,11,23,0.00
2013-4-12,60.4,50.5,43.3,31.3,24.2,18.3,52,37,22,29.76,29.69,23,9,23,0.00
2013-4-13,56.5,51.1,47.1,32.2,21.8,14.5,54,33,21,29.76,29.70,30,11,30,0.00
2013-4-14,56.7,49.9,42.8,26.8,19.7,14.0,49,31,20,29.78,29.71,27,9,27,0.00
2013-4-15,52.9,49.6,46.2,37.6,18.1,9.5,62,30,19,29.81,29.71,37,17,37,0.34
2013-4-16,56.7,49.3,40.3,20.7,14.6,9.1,44,26,18,29.95,29.80,27,8,27,0.34
2013-4-17,62.6,53.0,43.3,23.4,16.7,6.6,43,24,17,30.06,29.94,27,8,27,0.00
2013-4-18,72.1,53.0,38.3,30.0,15.8,5.5,35,23,18,30.08,30.02,19,6,19,0.01
2013-4-19,68.7,53.3,41.2,27.7,20.9,12.0,47,29,17,30.07,29.90,21,7,21,0.00
2013-4-20,64.9,54.2,45.5,34.0,24.5,16.3,57,33,19,29.93,29.83,22,9,22,0.00
2013-4-21,83.3,56.5,42.4,45.9,27.9,15.4,58,36,17,29.85,29.76,19,6,19,0.00
2013-4-22,68.7,55.1,47.1,37.8,26.7,18.0,64,36,18,29.80,29.72,13,5,13,0.00
2013-4-23,65.1,52.8,46.6,45.0,34.8,29.1,72,53,30,29.80,29.70,21,5,21,0.00
2013-4-24,64.6,54.2,49.5,34.7,31.3,27.0,56,42,31,29.81,29.67,23,6,23,0.00
2013-4-25,63.0,55.9,48.7,33.3,31.1,27.0,47,39,32,29.97,29.80,20,5,20,0.00
2013-4-26,59.9,51.1,42.4,39.2,30.9,26.6,63,47,33,31.06,29.94,75,7,75,0.00
2013-4-27,61.9,51.2,47.8,43.5,36.0,29.3,74,57,35,30.04,29.91,21,9,21,0.00
2013-4-28,57.7,51.4,45.3,48.6,37.8,33.1,81,61,45,29.92,24.21,19,7,19,0.00
2013-4-29,75.6,56.8,45.5,43.9,34.8,31.1,60,44,32,29.73,29.61,23,8,23,0.00
2013-4-30,61.2,54.0,48.4,37.8,33.4,28.6,60,46,41,29.69,29.62,24,10,24,0.00
2013-5-1,63.5,53.3,45.3,46.9,36.9,28.6,76,55,41,29.92,29.67,15,5,15,0.01
2013-5-2,84.4,65.5,48.7,55.6,41.3,31.1,56,42,34,29.95,29.90,19,7,19,0.00
2013-5-3,86.7,63.2,50.4,55.6,37.4,26.2,41,38,34,29.92,29.64,18,6,18,0.00
2013-5-4,68.2,55.9,46.2,42.3,33.7,24.4,67,44,35,29.65,29.44,24,6,24,0.00
2013-5-5,70.2,58.7,48.2,40.8,33.8,27.9,48,39,34,29.62,29.47,29,7,29,0.00
2013-5-6,72.0,61.1,55.0,42.1,35.0,30.2,40,38,34,29.79,29.62,20,5,20,0.00
2013-5-7,67.5,57.7,51.8,41.2,36.0,30.7,67,45,36,29.90,29.77,21,6,21,0.00
2013-5-8,58.8,53.7,50.4,46.0,37.7,31.6,75,56,39,29.98,29.88,21,7,21,0.01
2013-5-9,58.6,53.9,51.4,36.7,33.8,31.6,55,47,40,30.01,29.94,21,8,21,0.01
2013-5-10,64.4,54.0,51.1,40.3,36.2,32.5,63,51,38,30.01,29.95,23,9,23,0.00
2013-5-11,69.8,54.5,49.8,50.7,39.7,33.1,81,59,37,29.98,29.90,22,9,22,0.00
2013-5-12,72.0,56.6,47.7,59.0,42.7,38.1,84,62,42,29.97,29.86,23,8,23,0.00
2013-5-13,63.0,56.4,51.8,49.3,42.2,37.4,77,60,50,29.93,29.81,24,11,24,0.00
2013-5-14,59.9,55.8,52.2,41.7,39.0,35.6,57,53,51,29.91,29.81,25,12,25,0.00
2013-5-15,60.1,55.4,50.5,42.3,38.5,34.0,55,53,51,29.94,29.88,27,11,27,0.00
2013-5-16,65.1,56.7,52.9,46.0,41.2,37.8,63,56,49,29.89,29.82,21,9,21,0.00
2013-5-17,60.8,55.9,48.9,42.3,39.1,35.2,61,53,49,29.93,29.82,30,10,30,0.01
2013-5-18,61.0,55.8,50.0,42.1,38.5,34.0,58,52,48,29.98,29.92,24,10,24,0.02
2013-5-19,65.1,57.4,50.5,44.8,39.4,33.8,58,51,46,29.96,29.81,24,9,24,0.00
2013-5-20,79.3,59.0,48.0,55.4,41.6,34.9,67,53,44,29.83,29.76,21,8,21,0.00
2013-5-21,59.7,54.5,50.2,39.0,36.2,30.9,60,50,44,29.87,29.76,31,13,31,0.00
2013-5-22,58.3,51.9,44.4,37.8,33.1,27.1,52,49,46,29.84,29.76,30,11,30,0.00
2013-5-23,56.7,52.0,47.8,36.7,33.0,29.5,52,48,46,29.87,29.78,28,12,28,0.00
2013-5-24,56.7,51.5,44.2,36.7,33.6,28.8,61,50,46,29.87,29.80,24,10,24,0.00
2013-5-25,57.0,53.0,49.1,36.7,34.1,31.1,56,49,46,29.92,29.84,25,12,25,0.00
2013-5-26,63.7,56.3,50.7,40.8,38.3,31.3,63,52,42,29.99,29.79,24,10,24,0.01
2013-5-27,64.4,57.3,50.4,44.4,39.7,36.5,70,53,43,29.99,29.87,19,7,19,0.00
2013-5-28,65.7,58.9,53.4,52.3,41.7,34.3,74,54,44,29.87,29.76,23,9,23,0.01
2013-5-29,64.9,57.3,52.0,43.7,37.7,31.3,56,48,43,29.81,29.75,24,10,24,0.00
2013-5-30,59.7,54.7,50.2,37.2,34.5,30.9,59,47,42,29.85,29.77,24,12,24,0.00
2013-5-31,68.5,56.8,46.4,45.1,36.8,30.7,58,47,41,29.83,29.76,21,9,21,0.00
2013-6-1,68.9,57.4,48.4,44.8,37.4,32.5,57,47,41,29.78,29.62,25,10,25,0.00
2013-6-2,55.8,52.9,50.9,40.6,37.2,33.6,66,55,46,29.64,29.59,24,12,24,0.00
2013-6-3,66.9,55.9,52.2,44.2,38.8,33.4,65,53,42,29.72,29.60,21,5,21,0.00
2013-6-4,61.2,55.9,52.0,38.7,36.2,33.1,54,48,42,29.82,29.62,21,6,21,0.00
2013-6-5,59.5,55.0,50.0,38.1,35.8,33.1,57,48,43,29.84,29.80,19,6,19,0.00
2013-6-6,59.7,55.0,52.2,40.8,35.9,33.1,64,49,41,29.81,29.73,19,8,19,0.00
2013-6-7,63.1,54.8,51.1,43.7,40.1,34.9,73,59,42,29.76,29.61,20,6,20,0.00
2013-6-8,72.9,59.1,51.3,51.4,45.3,40.6,82,62,42,29.69,29.60,14,5,14,0.00
2013-6-9,68.4,59.3,56.1,47.7,43.7,39.4,68,57,45,29.73,29.66,21,6,21,0.00
2013-6-10,65.3,59.6,55.8,43.2,39.5,37.4,51,47,43,29.80,29.70,25,7,25,0.00
2013-6-11,64.4,58.7,53.8,40.8,38.0,34.0,52,46,41,29.82,29.75,21,7,21,0.00
2013-6-12,61.2,56.5,52.3,41.9,36.0,30.4,61,47,36,29.88,29.75,27,11,27,0.00
2013-6-13,61.7,56.2,50.9,36.3,33.5,30.7,51,42,37,29.93,29.82,24,11,24,0.00
2013-6-14,69.3,56.7,47.5,41.2,36.8,32.2,68,48,36,29.83,29.69,21,9,21,0.00
2013-6-15,56.7,53.3,51.4,37.4,34.8,32.2,57,50,44,29.86,29.69,21,10,21,0.00
2013-6-16,63.5,56.5,51.1,39.7,36.1,32.4,63,47,37,29.94,29.85,22,10,22,0.00
2013-6-17,63.9,58.0,52.9,39.7,36.2,31.5,60,44,35,29.94,29.87,27,12,27,0.00
2013-6-18,62.1,57.3,53.4,43.2,36.8,32.9,66,47,36,29.89,29.83,36,12,36,0.00
2013-6-19,63.0,56.8,50.0,39.0,34.3,29.8,59,44,34,29.90,29.84,23,10,23,0.00
2013-6-20,61.3,56.0,48.7,33.4,31.6,28.8,53,40,34,29.85,29.80,27,11,27,0.00
2013-6-21,61.3,56.1,49.8,36.1,33.0,30.7,57,42,34,29.83,29.77,27,12,27,0.00
2013-6-22,65.3,56.8,47.8,42.1,35.8,31.5,65,47,33,29.78,29.70,25,10,25,0.00
2013-6-23,65.7,58.8,53.8,50.9,44.6,38.3,78,61,38,29.75,29.66,16,8,17,0.00
2013-6-24,68.4,60.1,56.8,51.6,44.6,36.3,73,58,36,29.76,29.64,17,4,18,0.02
2013-6-25,70.7,63.1,57.2,52.2,44.7,38.5,75,53,37,29.83,29.76,24,6,24,0.00
2013-6-26,73.4,64.9,57.9,56.8,46.9,39.7,74,54,33,29.87,29.80,22,7,22,0.00
2013-6-27,76.1,65.4,55.9,49.1,42.9,38.3,63,44,36,29.89,29.82,22,8,22,0.00
2013-6-28,71.6,62.8,55.2,46.0,39.8,35.1,55,43,36,29.85,29.73,21,9,21,0.00
2013-6-29,74.7,63.9,55.2,48.6,40.4,34.3,55,42,34,29.77,29.66,23,10,23,0.00
2013-6-30,68.0,60.8,54.7,43.5,37.6,34.0,60,43,34,29.70,29.61,23,12,23,0.00
2013-7-1,71.4,59.4,53.1,46.6,39.1,32.7,68,49,32,29.73,29.63,20,8,20,0.00
2013-7-2,70.2,58.8,54.1,50.7,42.7,33.3,75,58,30,29.80,29.68,21,7,21,0.00
2013-7-3,70.7,59.7,55.4,48.9,41.6,31.8,71,54,30,29.77,29.63,17,6,17,0.00
2013-7-4,72.0,61.3,55.0,53.6,39.8,30.6,75,48,28,29.65,29.57,21,8,21,0.00
2013-7-5,61.0,57.6,55.6,35.2,32.0,29.8,46,38,32,29.70,29.61,21,12,22,0.00
2013-7-6,61.7,56.5,54.0,36.3,32.4,29.5,50,40,32,29.68,29.63,20,8,21,0.00
2013-7-7,63.7,57.7,53.6,36.3,31.7,27.1,49,38,26,29.72,29.64,21,7,21,0.00
2013-7-8,64.9,57.8,53.8,39.4,32.8,27.1,58,40,26,29.82,29.71,18,6,18,0.00
2013-7-9,65.8,56.6,51.8,52.3,38.5,28.0,75,54,26,29.86,29.80,21,8,21,0.00
2013-7-10,63.0,56.1,52.3,51.3,41.1,33.1,77,59,36,29.85,29.77,21,8,21,0.00
2013-7-11,60.4,55.4,52.9,42.3,35.7,30.6,66,49,35,29.81,29.77,20,7,21,0.00
2013-7-12,63.0,56.0,52.9,38.7,33.3,30.0,58,43,31,29.79,29.75,22,7,22,0.00
2013-7-13,63.0,55.9,50.0,42.8,35.4,28.8,69,48,28,31.06,29.75,75,8,75,0.00
2013-7-14,61.2,55.4,51.6,42.3,36.0,29.3,67,50,31,29.85,29.77,21,8,21,0.00
2013-7-15,61.2,55.7,52.2,38.5,33.1,26.6,58,44,27,29.78,29.71,20,8,20,0.00
2013-7-16,64.2,58.5,55.2,40.6,33.5,24.3,56,40,24,29.87,29.73,19,7,19,0.00
2013-7-17,63.9,58.6,54.1,41.0,34.6,26.2,59,42,25,29.93,29.86,22,8,22,0.00
2013-7-18,64.4,55.8,53.1,46.6,37.8,26.2,69,53,24,29.90,29.81,19,8,19,0.00
2013-7-19,59.5,54.2,52.0,45.7,39.8,30.0,75,60,33,29.81,29.71,22,9,22,0.00
2013-7-20,57.2,53.9,52.0,45.7,39.3,29.8,75,59,36,29.72,29.64,20,8,20,0.00
2013-7-21,61.3,55.4,52.7,42.1,37.2,28.4,63,52,29,29.75,29.63,22,6,22,0.00
2013-7-22,68.4,57.9,54.5,46.9,41.2,31.8,70,56,29,29.82,29.71,17,4,17,0.00
2013-7-23,69.1,58.8,54.7,52.9,45.2,38.5,74,62,38,29.85,29.76,20,6,20,0.00
2013-7-24,62.8,57.1,52.0,51.8,44.0,38.1,79,63,42,29.83,29.77,60,7,60,0.01
2013-7-25,61.9,56.3,52.9,49.8,43.2,37.8,81,63,43,29.88,29.78,21,8,75,0.00
2013-7-26,62.1,56.8,53.6,48.4,42.7,37.6,75,60,43,29.95,29.87,21,7,21,0.00
2013-7-27,62.4,57.1,53.8,52.3,43.4,38.1,78,62,42,29.90,29.73,18,7,18,0.00
2013-7-28,62.4,56.8,53.8,43.0,39.6,35.8,65,53,40,29.75,29.70,22,7,22,0.00
2013-7-29,66.0,59.0,55.8,42.1,37.9,34.7,58,46,36,29.87,29.71,21,6,25,0.00
2013-7-30,64.2,59.3,57.0,37.6,36.4,34.0,47,43,35,29.95,29.87,60,7,60,0.02
2013-7-31,60.1,57.1,54.7,37.9,35.8,32.7,52,45,37,29.95,29.88,21,9,21,0.02
2013-8-1,63.5,58.1,54.1,39.9,36.3,32.7,57,45,34,29.94,29.81,23,12,24,0.00
2013-8-2,59.5,55.4,52.9,43.0,38.0,31.6,65,53,36,29.84,29.78,22,10,22,0.00
2013-8-3,61.7,56.0,52.9,42.4,37.7,31.5,66,52,33,29.84,29.78,20,8,20,0.00
2013-8-4,59.9,54.8,52.0,44.2,38.4,30.7,71,56,34,29.86,29.82,19,7,19,0.00
2013-8-5,60.8,55.9,53.4,46.8,38.9,30.7,71,54,33,29.87,29.81,21,7,75,0.00
2013-8-6,61.7,56.7,53.8,43.7,36.9,29.1,64,49,30,29.91,29.81,21,8,21,0.00
2013-8-7,64.4,59.3,55.2,46.2,38.0,29.8,66,47,29,29.95,29.88,20,6,20,0.01
2013-8-8,63.7,58.5,55.2,48.7,39.3,31.3,71,51,31,29.88,29.80,23,7,60,0.01
2013-8-9,64.9,59.0,55.9,42.1,37.2,31.5,55,45,31,29.84,29.76,20,7,20,0.00
2013-8-10,65.8,58.5,55.9,48.0,41.8,32.7,70,55,32,29.88,29.82,21,7,21,0.00
2013-8-11,61.7,56.9,55.0,51.6,45.2,38.7,77,66,44,29.86,29.80,19,8,19,0.00
2013-8-12,57.4,54.7,54.7,46.6,46.2,46.2,73,73,73,29.86,29.79,21,8,21,0.00
2013-8-13,54.7,54.7,54.7,46.2,46.2,46.2,73,73,73,29.83,29.77,60,8,60,0.00
2013-8-14,54.7,54.7,54.7,46.2,46.2,46.2,73,73,73,29.83,29.74,24,10,24,0.00
2013-8-15,54.7,54.7,54.7,46.2,46.2,46.2,73,73,73,29.79,29.75,22,7,22,0.00
2013-8-16,54.7,54.7,54.7,46.2,46.2,46.2,73,73,73,29.82,29.76,23,9,23,0.00
2013-8-17,54.7,54.7,54.7,46.2,46.2,46.2,73,73,73,29.84,29.73,27,12,27,0.01
2013-8-18,54.7,54.7,54.7,46.2,46.2,46.2,73,73,73,29.74,29.63,21,7,21,0.01
2013-8-19,54.7,54.7,54.7,46.2,46.2,46.2,73,73,73,29.78,29.67,19,6,19,0.00
2013-8-20,54.7,54.7,54.7,46.2,46.2,46.2,73,73,73,29.76,29.70,18,6,18,0.00
2013-10-18,54.7,54.7,54.7,46.2,46.2,46.2,73,73,73,0.00,40.00,9,8,0,0.00